sensor_id;sensor_type;location;lat;lon;timestamp;temperature;humidity
18163;DHT22;9206;50.994;4.538;2023-04-16T00:01:25;8.40;99.90
18163;DHT22;9206;50.994;4.538;2023-04-16T00:04:13;8.40;99.90
18163;DHT22;9206;50.994;4.538;2023-04-16T00:07:03;8.40;99.90
18163;DHT22;9206;50.994;4.538;2023-04-16T00:09:52;8.40;99.90
18163;DHT22;9206;50.994;4.538;2023-04-16T00:12:45;8.40;99.90
18163;DHT22;9206;50.994;4.538;2023-04-16T00:15:42;8.40;99.90
18163;DHT22;9206;50.994;4.538;2023-04-16T00:18:31;8.40;99.90
18163;DHT22;9206;50.994;4.538;2023-04-16T00:21:20;8.30;99.90
18163;DHT22;9206;50.994;4.538;2023-04-16T00:24:10;8.30;99.90
18163;DHT22;9206;50.994;4.538;2023-04-16T00:26:57;8.30;99.90
18163;DHT22;9206;50.994;4.538;2023-04-16T00:29:45;8.30;99.90
18163;DHT22;9206;50.994;4.538;2023-04-16T00:32:41;8.30;99.90
18163;DHT22;9206;50.994;4.538;2023-04-16T00:35:32;8.30;99.90
18163;DHT22;9206;50.994;4.538;2023-04-16T00:38:22;8.30;99.90
18163;DHT22;9206;50.994;4.538;2023-04-16T00:41:11;8.30;99.90
18163;DHT22;9206;50.994;4.538;2023-04-16T00:43:58;8.30;99.90
18163;DHT22;9206;50.994;4.538;2023-04-16T00:47:04;8.40;99.90
18163;DHT22;9206;50.994;4.538;2023-04-16T00:49:55;8.40;99.90
18163;DHT22;9206;50.994;4.538;2023-04-16T00:52:46;8.40;99.90
18163;DHT22;9206;50.994;4.538;2023-04-16T00:55:40;8.40;99.90
18163;DHT22;9206;50.994;4.538;2023-04-16T00:58:29;8.40;99.90
18163;DHT22;9206;50.994;4.538;2023-04-16T01:01:18;8.40;99.90
18163;DHT22;9206;50.994;4.538;2023-04-16T01:04:11;8.40;99.90
18163;DHT22;9206;50.994;4.538;2023-04-16T01:07:07;8.40;99.90
18163;DHT22;9206;50.994;4.538;2023-04-16T01:10:00;8.40;99.90
18163;DHT22;9206;50.994;4.538;2023-04-16T01:12:53;8.40;99.90
18163;DHT22;9206;50.994;4.538;2023-04-16T01:15:42;8.40;99.90
18163;DHT22;9206;50.994;4.538;2023-04-16T01:18:33;8.50;99.90
18163;DHT22;9206;50.994;4.538;2023-04-16T01:21:25;8.40;99.90
18163;DHT22;9206;50.994;4.538;2023-04-16T01:24:12;8.40;99.90
18163;DHT22;9206;50.994;4.538;2023-04-16T01:27:00;8.40;99.90
18163;DHT22;9206;50.994;4.538;2023-04-16T01:29:53;8.50;99.90
18163;DHT22;9206;50.994;4.538;2023-04-16T01:32:41;8.50;99.90
18163;DHT22;9206;50.994;4.538;2023-04-16T01:35:34;8.50;99.90
18163;DHT22;9206;50.994;4.538;2023-04-16T01:38:24;8.50;99.90
18163;DHT22;9206;50.994;4.538;2023-04-16T01:41:11;8.50;99.90
18163;DHT22;9206;50.994;4.538;2023-04-16T01:44:01;8.50;99.90
18163;DHT22;9206;50.994;4.538;2023-04-16T01:46:49;8.50;99.90
18163;DHT22;9206;50.994;4.538;2023-04-16T01:49:39;8.50;99.90
18163;DHT22;9206;50.994;4.538;2023-04-16T01:52:35;8.50;99.90
18163;DHT22;9206;50.994;4.538;2023-04-16T01:55:26;8.50;99.90
18163;DHT22;9206;50.994;4.538;2023-04-16T01:58:19;8.50;99.90
18163;DHT22;9206;50.994;4.538;2023-04-16T02:01:13;8.50;99.90
18163;DHT22;9206;50.994;4.538;2023-04-16T02:04:06;8.50;99.90
18163;DHT22;9206;50.994;4.538;2023-04-16T02:06:54;8.50;99.90
18163;DHT22;9206;50.994;4.538;2023-04-16T02:09:44;8.50;99.90
18163;DHT22;9206;50.994;4.538;2023-04-16T02:12:38;8.50;99.90
18163;DHT22;9206;50.994;4.538;2023-04-16T02:15:25;8.50;99.90
18163;DHT22;9206;50.994;4.538;2023-04-16T02:18:14;8.50;99.90
18163;DHT22;9206;50.994;4.538;2023-04-16T02:21:03;8.50;99.90
18163;DHT22;9206;50.994;4.538;2023-04-16T02:23:52;8.50;99.90
18163;DHT22;9206;50.994;4.538;2023-04-16T02:26:48;8.50;99.90
18163;DHT22;9206;50.994;4.538;2023-04-16T02:29:41;8.50;99.90
18163;DHT22;9206;50.994;4.538;2023-04-16T02:32:35;8.50;99.90
18163;DHT22;9206;50.994;4.538;2023-04-16T02:35:23;8.50;99.90
18163;DHT22;9206;50.994;4.538;2023-04-16T02:38:10;8.50;99.90
18163;DHT22;9206;50.994;4.538;2023-04-16T02:40:58;8.50;99.90
18163;DHT22;9206;50.994;4.538;2023-04-16T02:43:52;8.50;99.90
18163;DHT22;9206;50.994;4.538;2023-04-16T02:46:46;8.50;99.90
18163;DHT22;9206;50.994;4.538;2023-04-16T02:49:34;8.50;99.90
18163;DHT22;9206;50.994;4.538;2023-04-16T02:52:27;8.50;99.90
18163;DHT22;9206;50.994;4.538;2023-04-16T02:55:16;8.50;99.90
18163;DHT22;9206;50.994;4.538;2023-04-16T02:58:06;8.40;99.90
18163;DHT22;9206;50.994;4.538;2023-04-16T03:01:03;8.40;99.90
18163;DHT22;9206;50.994;4.538;2023-04-16T03:03:54;8.40;99.90
18163;DHT22;9206;50.994;4.538;2023-04-16T03:06:47;8.40;99.90
18163;DHT22;9206;50.994;4.538;2023-04-16T03:09:38;8.30;99.90
18163;DHT22;9206;50.994;4.538;2023-04-16T03:12:27;8.30;99.90
18163;DHT22;9206;50.994;4.538;2023-04-16T03:15:20;8.30;99.90
18163;DHT22;9206;50.994;4.538;2023-04-16T03:18:18;8.30;99.90
18163;DHT22;9206;50.994;4.538;2023-04-16T03:21:07;8.20;99.90
18163;DHT22;9206;50.994;4.538;2023-04-16T03:24:00;8.20;99.90
18163;DHT22;9206;50.994;4.538;2023-04-16T03:26:48;8.20;99.90
18163;DHT22;9206;50.994;4.538;2023-04-16T03:29:41;8.20;99.90
18163;DHT22;9206;50.994;4.538;2023-04-16T03:32:31;8.20;99.90
18163;DHT22;9206;50.994;4.538;2023-04-16T03:35:20;8.20;99.90
18163;DHT22;9206;50.994;4.538;2023-04-16T03:38:08;8.20;99.90
18163;DHT22;9206;50.994;4.538;2023-04-16T03:40:56;8.20;99.90
18163;DHT22;9206;50.994;4.538;2023-04-16T03:43:49;8.10;99.90
18163;DHT22;9206;50.994;4.538;2023-04-16T03:46:36;8.20;99.90
18163;DHT22;9206;50.994;4.538;2023-04-16T03:49:37;8.10;99.90
18163;DHT22;9206;50.994;4.538;2023-04-16T03:52:25;8.20;99.90
18163;DHT22;9206;50.994;4.538;2023-04-16T03:55:14;8.20;99.90
18163;DHT22;9206;50.994;4.538;2023-04-16T03:58:02;8.10;99.90
18163;DHT22;9206;50.994;4.538;2023-04-16T04:00:52;8.10;99.90
18163;DHT22;9206;50.994;4.538;2023-04-16T04:03:39;8.10;99.90
18163;DHT22;9206;50.994;4.538;2023-04-16T04:06:30;8.00;99.90
18163;DHT22;9206;50.994;4.538;2023-04-16T04:09:18;8.00;99.90
18163;DHT22;9206;50.994;4.538;2023-04-16T04:12:07;8.00;99.90
18163;DHT22;9206;50.994;4.538;2023-04-16T04:15:00;8.00;99.90
18163;DHT22;9206;50.994;4.538;2023-04-16T04:17:48;8.00;99.90
18163;DHT22;9206;50.994;4.538;2023-04-16T04:20:38;8.00;99.90
18163;DHT22;9206;50.994;4.538;2023-04-16T04:23:25;8.00;99.90
18163;DHT22;9206;50.994;4.538;2023-04-16T04:26:19;7.90;99.90
18163;DHT22;9206;50.994;4.538;2023-04-16T04:29:08;7.90;99.90
18163;DHT22;9206;50.994;4.538;2023-04-16T04:32:15;7.90;99.90
18163;DHT22;9206;50.994;4.538;2023-04-16T04:35:02;7.90;99.90
18163;DHT22;9206;50.994;4.538;2023-04-16T04:37:50;7.90;99.90
18163;DHT22;9206;50.994;4.538;2023-04-16T04:40:37;7.90;99.90
18163;DHT22;9206;50.994;4.538;2023-04-16T04:43:25;7.90;99.90
18163;DHT22;9206;50.994;4.538;2023-04-16T04:46:14;7.90;99.90
18163;DHT22;9206;50.994;4.538;2023-04-16T04:49:01;7.90;99.90
18163;DHT22;9206;50.994;4.538;2023-04-16T04:51:50;7.90;99.90
18163;DHT22;9206;50.994;4.538;2023-04-16T04:54:43;7.90;99.90
18163;DHT22;9206;50.994;4.538;2023-04-16T04:57:30;7.90;99.90
18163;DHT22;9206;50.994;4.538;2023-04-16T05:00:18;7.90;99.90
18163;DHT22;9206;50.994;4.538;2023-04-16T05:03:09;7.90;99.90
18163;DHT22;9206;50.994;4.538;2023-04-16T05:06:03;8.00;99.90
18163;DHT22;9206;50.994;4.538;2023-04-16T05:08:54;8.00;99.90
18163;DHT22;9206;50.994;4.538;2023-04-16T05:11:42;7.90;99.90
18163;DHT22;9206;50.994;4.538;2023-04-16T05:14:29;7.90;99.90
18163;DHT22;9206;50.994;4.538;2023-04-16T05:17:20;7.90;99.90
18163;DHT22;9206;50.994;4.538;2023-04-16T05:20:10;7.90;99.90
18163;DHT22;9206;50.994;4.538;2023-04-16T05:22:57;7.90;99.90
18163;DHT22;9206;50.994;4.538;2023-04-16T05:25:51;7.90;99.90
18163;DHT22;9206;50.994;4.538;2023-04-16T05:28:41;7.90;99.90
18163;DHT22;9206;50.994;4.538;2023-04-16T05:31:29;7.90;99.90
18163;DHT22;9206;50.994;4.538;2023-04-16T05:34:18;7.90;99.90
18163;DHT22;9206;50.994;4.538;2023-04-16T05:37:07;8.00;99.90
18163;DHT22;9206;50.994;4.538;2023-04-16T05:40:00;8.00;99.90
18163;DHT22;9206;50.994;4.538;2023-04-16T05:42:48;8.00;99.90
18163;DHT22;9206;50.994;4.538;2023-04-16T05:45:35;8.00;99.90
18163;DHT22;9206;50.994;4.538;2023-04-16T05:48:28;8.00;99.90
18163;DHT22;9206;50.994;4.538;2023-04-16T05:51:22;8.00;99.90
18163;DHT22;9206;50.994;4.538;2023-04-16T05:54:12;8.00;99.90
18163;DHT22;9206;50.994;4.538;2023-04-16T05:57:02;8.00;99.90
18163;DHT22;9206;50.994;4.538;2023-04-16T05:59:55;8.00;99.90
18163;DHT22;9206;50.994;4.538;2023-04-16T06:02:43;8.00;99.90
18163;DHT22;9206;50.994;4.538;2023-04-16T06:05:43;8.10;99.90
18163;DHT22;9206;50.994;4.538;2023-04-16T06:08:33;8.10;99.90
18163;DHT22;9206;50.994;4.538;2023-04-16T06:11:28;8.00;99.90
18163;DHT22;9206;50.994;4.538;2023-04-16T06:14:22;8.10;99.90
18163;DHT22;9206;50.994;4.538;2023-04-16T06:17:11;8.10;99.90
18163;DHT22;9206;50.994;4.538;2023-04-16T06:20:00;8.10;99.90
18163;DHT22;9206;50.994;4.538;2023-04-16T06:22:52;8.00;99.90
18163;DHT22;9206;50.994;4.538;2023-04-16T06:25:45;8.10;99.90
18163;DHT22;9206;50.994;4.538;2023-04-16T06:28:34;8.10;99.90
18163;DHT22;9206;50.994;4.538;2023-04-16T06:31:21;8.10;99.90
18163;DHT22;9206;50.994;4.538;2023-04-16T06:34:14;8.10;99.90
18163;DHT22;9206;50.994;4.538;2023-04-16T06:37:02;8.10;99.90
18163;DHT22;9206;50.994;4.538;2023-04-16T06:39:50;8.20;99.90
18163;DHT22;9206;50.994;4.538;2023-04-16T06:42:41;8.20;99.90
18163;DHT22;9206;50.994;4.538;2023-04-16T06:45:39;8.20;99.90
18163;DHT22;9206;50.994;4.538;2023-04-16T06:48:26;8.20;99.90
18163;DHT22;9206;50.994;4.538;2023-04-16T06:51:14;8.20;99.90
18163;DHT22;9206;50.994;4.538;2023-04-16T06:54:06;8.20;99.90
18163;DHT22;9206;50.994;4.538;2023-04-16T06:56:54;8.20;99.90
18163;DHT22;9206;50.994;4.538;2023-04-16T06:59:44;8.30;99.90
18163;DHT22;9206;50.994;4.538;2023-04-16T07:02:34;8.30;99.90
18163;DHT22;9206;50.994;4.538;2023-04-16T07:05:25;8.30;99.90
18163;DHT22;9206;50.994;4.538;2023-04-16T07:08:24;8.30;99.90
18163;DHT22;9206;50.994;4.538;2023-04-16T07:11:14;8.30;99.90
18163;DHT22;9206;50.994;4.538;2023-04-16T07:14:07;8.40;99.90
18163;DHT22;9206;50.994;4.538;2023-04-16T07:17:01;8.40;99.90
18163;DHT22;9206;50.994;4.538;2023-04-16T07:20:01;8.40;99.90
18163;DHT22;9206;50.994;4.538;2023-04-16T07:22:54;8.50;99.90
18163;DHT22;9206;50.994;4.538;2023-04-16T07:25:42;8.50;99.90
18163;DHT22;9206;50.994;4.538;2023-04-16T07:28:29;8.50;99.90
18163;DHT22;9206;50.994;4.538;2023-04-16T07:31:19;8.50;99.90
18163;DHT22;9206;50.994;4.538;2023-04-16T07:34:09;8.50;99.90
18163;DHT22;9206;50.994;4.538;2023-04-16T07:37:04;8.60;99.90
18163;DHT22;9206;50.994;4.538;2023-04-16T07:40:10;8.60;99.90
18163;DHT22;9206;50.994;4.538;2023-04-16T07:43:00;8.60;99.90
18163;DHT22;9206;50.994;4.538;2023-04-16T07:45:53;8.60;99.90
18163;DHT22;9206;50.994;4.538;2023-04-16T07:48:41;8.60;99.90
18163;DHT22;9206;50.994;4.538;2023-04-16T07:51:30;8.60;99.90
18163;DHT22;9206;50.994;4.538;2023-04-16T07:54:27;8.70;99.90
18163;DHT22;9206;50.994;4.538;2023-04-16T07:57:17;8.60;99.90
18163;DHT22;9206;50.994;4.538;2023-04-16T08:00:07;8.60;99.90
18163;DHT22;9206;50.994;4.538;2023-04-16T08:02:57;8.60;99.90
18163;DHT22;9206;50.994;4.538;2023-04-16T08:06:06;8.60;99.90
18163;DHT22;9206;50.994;4.538;2023-04-16T08:08:55;8.60;99.90
18163;DHT22;9206;50.994;4.538;2023-04-16T08:11:49;8.60;99.90
18163;DHT22;9206;50.994;4.538;2023-04-16T08:14:38;8.60;99.90
18163;DHT22;9206;50.994;4.538;2023-04-16T08:17:28;8.70;99.90
18163;DHT22;9206;50.994;4.538;2023-04-16T08:20:15;8.70;99.90
18163;DHT22;9206;50.994;4.538;2023-04-16T08:23:06;8.70;99.90
18163;DHT22;9206;50.994;4.538;2023-04-16T08:25:53;8.60;99.90
18163;DHT22;9206;50.994;4.538;2023-04-16T08:28:42;8.60;99.90
18163;DHT22;9206;50.994;4.538;2023-04-16T08:31:32;8.60;99.90
18163;DHT22;9206;50.994;4.538;2023-04-16T08:34:20;8.70;99.90
18163;DHT22;9206;50.994;4.538;2023-04-16T08:37:08;8.70;99.90
18163;DHT22;9206;50.994;4.538;2023-04-16T08:39:57;8.70;99.90
18163;DHT22;9206;50.994;4.538;2023-04-16T08:42:58;8.80;99.90
18163;DHT22;9206;50.994;4.538;2023-04-16T08:45:53;8.90;99.90
18163;DHT22;9206;50.994;4.538;2023-04-16T08:48:43;8.80;99.90
18163;DHT22;9206;50.994;4.538;2023-04-16T08:51:37;8.80;99.90
18163;DHT22;9206;50.994;4.538;2023-04-16T08:54:42;8.80;99.90
18163;DHT22;9206;50.994;4.538;2023-04-16T08:57:42;8.90;99.90
18163;DHT22;9206;50.994;4.538;2023-04-16T09:00:36;8.90;99.90
18163;DHT22;9206;50.994;4.538;2023-04-16T09:03:33;8.90;99.90
18163;DHT22;9206;50.994;4.538;2023-04-16T09:06:26;8.90;99.90
18163;DHT22;9206;50.994;4.538;2023-04-16T09:09:16;8.90;99.90
18163;DHT22;9206;50.994;4.538;2023-04-16T09:12:06;8.90;99.90
18163;DHT22;9206;50.994;4.538;2023-04-16T09:14:56;8.90;99.90
18163;DHT22;9206;50.994;4.538;2023-04-16T09:17:44;8.90;99.90
18163;DHT22;9206;50.994;4.538;2023-04-16T09:20:39;9.00;99.90
18163;DHT22;9206;50.994;4.538;2023-04-16T09:23:29;9.00;99.90
18163;DHT22;9206;50.994;4.538;2023-04-16T09:26:16;9.00;99.90
18163;DHT22;9206;50.994;4.538;2023-04-16T09:29:04;9.00;99.90
18163;DHT22;9206;50.994;4.538;2023-04-16T09:32:01;9.00;99.90
18163;DHT22;9206;50.994;4.538;2023-04-16T09:34:57;9.00;99.90
18163;DHT22;9206;50.994;4.538;2023-04-16T09:37:56;9.00;99.90
18163;DHT22;9206;50.994;4.538;2023-04-16T09:40:44;9.00;99.90
18163;DHT22;9206;50.994;4.538;2023-04-16T09:43:32;9.00;99.90
18163;DHT22;9206;50.994;4.538;2023-04-16T09:46:20;9.00;99.90
18163;DHT22;9206;50.994;4.538;2023-04-16T09:49:08;9.10;99.90
18163;DHT22;9206;50.994;4.538;2023-04-16T09:51:56;9.10;99.90
18163;DHT22;9206;50.994;4.538;2023-04-16T09:54:50;9.10;99.90
18163;DHT22;9206;50.994;4.538;2023-04-16T09:57:43;9.20;99.90
18163;DHT22;9206;50.994;4.538;2023-04-16T10:00:32;9.20;99.90
18163;DHT22;9206;50.994;4.538;2023-04-16T10:03:28;9.20;99.90
18163;DHT22;9206;50.994;4.538;2023-04-16T10:06:17;9.20;99.90
18163;DHT22;9206;50.994;4.538;2023-04-16T10:09:15;9.20;99.90
18163;DHT22;9206;50.994;4.538;2023-04-16T10:12:04;9.20;99.90
18163;DHT22;9206;50.994;4.538;2023-04-16T10:14:57;9.20;99.90
18163;DHT22;9206;50.994;4.538;2023-04-16T10:17:47;9.20;99.90
18163;DHT22;9206;50.994;4.538;2023-04-16T10:20:35;9.20;99.90
18163;DHT22;9206;50.994;4.538;2023-04-16T10:23:23;9.30;99.90
18163;DHT22;9206;50.994;4.538;2023-04-16T10:26:12;9.30;99.90
18163;DHT22;9206;50.994;4.538;2023-04-16T10:29:01;9.30;99.90
18163;DHT22;9206;50.994;4.538;2023-04-16T10:31:52;9.30;99.90
18163;DHT22;9206;50.994;4.538;2023-04-16T10:34:46;9.40;99.90
18163;DHT22;9206;50.994;4.538;2023-04-16T10:37:37;9.40;99.90
18163;DHT22;9206;50.994;4.538;2023-04-16T10:40:27;9.40;99.90
18163;DHT22;9206;50.994;4.538;2023-04-16T10:43:17;9.50;99.90
18163;DHT22;9206;50.994;4.538;2023-04-16T10:46:21;9.50;99.90
18163;DHT22;9206;50.994;4.538;2023-04-16T10:49:12;9.60;99.90
18163;DHT22;9206;50.994;4.538;2023-04-16T10:52:08;9.60;99.90
18163;DHT22;9206;50.994;4.538;2023-04-16T10:55:02;9.60;99.90
18163;DHT22;9206;50.994;4.538;2023-04-16T10:57:55;9.60;99.90
18163;DHT22;9206;50.994;4.538;2023-04-16T11:00:51;9.70;99.90
18163;DHT22;9206;50.994;4.538;2023-04-16T11:03:54;9.70;99.90
18163;DHT22;9206;50.994;4.538;2023-04-16T11:07:05;9.80;99.90
18163;DHT22;9206;50.994;4.538;2023-04-16T11:09:57;9.80;99.90
18163;DHT22;9206;50.994;4.538;2023-04-16T11:12:51;9.90;99.90
18163;DHT22;9206;50.994;4.538;2023-04-16T11:15:56;9.90;99.90
18163;DHT22;9206;50.994;4.538;2023-04-16T11:18:44;10.00;99.90
18163;DHT22;9206;50.994;4.538;2023-04-16T11:21:35;10.00;99.90
18163;DHT22;9206;50.994;4.538;2023-04-16T11:24:28;10.10;99.90
18163;DHT22;9206;50.994;4.538;2023-04-16T11:27:22;10.10;99.90
18163;DHT22;9206;50.994;4.538;2023-04-16T11:30:27;10.10;99.90
18163;DHT22;9206;50.994;4.538;2023-04-16T11:33:18;10.10;99.90
18163;DHT22;9206;50.994;4.538;2023-04-16T11:36:13;10.10;99.90
18163;DHT22;9206;50.994;4.538;2023-04-16T11:39:16;10.10;99.90
18163;DHT22;9206;50.994;4.538;2023-04-16T11:49:52;10.30;99.90
18163;DHT22;9206;50.994;4.538;2023-04-16T11:52:46;10.30;99.90
18163;DHT22;9206;50.994;4.538;2023-04-16T11:55:43;10.30;99.90
18163;DHT22;9206;50.994;4.538;2023-04-16T11:58:32;10.30;99.90
18163;DHT22;9206;50.994;4.538;2023-04-16T12:01:23;10.40;99.90
18163;DHT22;9206;50.994;4.538;2023-04-16T12:04:13;10.40;99.90
18163;DHT22;9206;50.994;4.538;2023-04-16T12:07:07;10.50;99.90
18163;DHT22;9206;50.994;4.538;2023-04-16T12:10:05;10.50;99.90
18163;DHT22;9206;50.994;4.538;2023-04-16T12:13:09;10.50;99.90
18163;DHT22;9206;50.994;4.538;2023-04-16T12:16:01;10.60;99.90
18163;DHT22;9206;50.994;4.538;2023-04-16T12:19:11;10.80;99.90
18163;DHT22;9206;50.994;4.538;2023-04-16T12:22:01;10.80;99.90
18163;DHT22;9206;50.994;4.538;2023-04-16T12:25:09;10.90;99.90
18163;DHT22;9206;50.994;4.538;2023-04-16T12:28:11;10.90;99.90
18163;DHT22;9206;50.994;4.538;2023-04-16T12:31:01;10.80;99.90
18163;DHT22;9206;50.994;4.538;2023-04-16T12:37:30;11.00;99.90
18163;DHT22;9206;50.994;4.538;2023-04-16T12:40:28;11.20;99.90
18163;DHT22;9206;50.994;4.538;2023-04-16T12:43:43;11.30;99.90
18163;DHT22;9206;50.994;4.538;2023-04-16T12:46:34;11.40;99.90
18163;DHT22;9206;50.994;4.538;2023-04-16T12:49:26;11.30;99.90
18163;DHT22;9206;50.994;4.538;2023-04-16T12:52:19;11.30;99.90
18163;DHT22;9206;50.994;4.538;2023-04-16T12:55:07;11.20;99.90
18163;DHT22;9206;50.994;4.538;2023-04-16T12:57:54;11.20;99.90
18163;DHT22;9206;50.994;4.538;2023-04-16T13:00:49;11.20;99.90
18163;DHT22;9206;50.994;4.538;2023-04-16T13:03:42;11.10;99.90
18163;DHT22;9206;50.994;4.538;2023-04-16T13:06:35;11.10;99.90
18163;DHT22;9206;50.994;4.538;2023-04-16T13:09:24;11.10;99.90
18163;DHT22;9206;50.994;4.538;2023-04-16T13:12:31;11.00;99.90
18163;DHT22;9206;50.994;4.538;2023-04-16T13:15:20;11.10;99.90
18163;DHT22;9206;50.994;4.538;2023-04-16T13:18:14;11.10;99.90
18163;DHT22;9206;50.994;4.538;2023-04-16T13:21:03;11.10;99.90
18163;DHT22;9206;50.994;4.538;2023-04-16T13:23:53;11.10;99.90
18163;DHT22;9206;50.994;4.538;2023-04-16T13:26:40;11.00;99.90
18163;DHT22;9206;50.994;4.538;2023-04-16T13:29:28;11.00;99.90
18163;DHT22;9206;50.994;4.538;2023-04-16T13:32:18;11.00;99.90
18163;DHT22;9206;50.994;4.538;2023-04-16T13:35:12;11.00;99.90
18163;DHT22;9206;50.994;4.538;2023-04-16T13:38:06;11.10;99.90
18163;DHT22;9206;50.994;4.538;2023-04-16T13:40:53;11.20;99.90
18163;DHT22;9206;50.994;4.538;2023-04-16T13:43:41;11.20;99.90
18163;DHT22;9206;50.994;4.538;2023-04-16T13:46:30;11.20;99.90
18163;DHT22;9206;50.994;4.538;2023-04-16T13:49:20;11.20;99.90
18163;DHT22;9206;50.994;4.538;2023-04-16T13:52:09;11.20;99.90
18163;DHT22;9206;50.994;4.538;2023-04-16T13:54:58;11.20;99.90
18163;DHT22;9206;50.994;4.538;2023-04-16T13:57:46;11.20;99.90
18163;DHT22;9206;50.994;4.538;2023-04-16T14:00:37;11.20;99.90
18163;DHT22;9206;50.994;4.538;2023-04-16T14:03:25;11.10;99.90
18163;DHT22;9206;50.994;4.538;2023-04-16T14:06:13;11.10;99.90
18163;DHT22;9206;50.994;4.538;2023-04-16T14:09:04;11.00;99.90
18163;DHT22;9206;50.994;4.538;2023-04-16T14:11:54;11.00;99.90
18163;DHT22;9206;50.994;4.538;2023-04-16T14:14:48;11.00;99.90
18163;DHT22;9206;50.994;4.538;2023-04-16T14:17:38;11.00;99.90
18163;DHT22;9206;50.994;4.538;2023-04-16T14:20:26;11.00;99.90
18163;DHT22;9206;50.994;4.538;2023-04-16T14:23:19;11.10;99.90
18163;DHT22;9206;50.994;4.538;2023-04-16T14:26:07;11.10;99.90
18163;DHT22;9206;50.994;4.538;2023-04-16T14:28:56;11.10;99.90
18163;DHT22;9206;50.994;4.538;2023-04-16T14:31:43;11.10;99.90
18163;DHT22;9206;50.994;4.538;2023-04-16T14:34:31;11.00;99.90
18163;DHT22;9206;50.994;4.538;2023-04-16T14:37:20;11.10;99.90
18163;DHT22;9206;50.994;4.538;2023-04-16T14:40:08;11.10;99.90
18163;DHT22;9206;50.994;4.538;2023-04-16T14:43:04;11.10;99.90
18163;DHT22;9206;50.994;4.538;2023-04-16T14:45:54;11.20;99.90
18163;DHT22;9206;50.994;4.538;2023-04-16T14:48:49;11.30;99.90
18163;DHT22;9206;50.994;4.538;2023-04-16T14:51:37;11.30;99.90
18163;DHT22;9206;50.994;4.538;2023-04-16T14:54:27;11.40;99.90
18163;DHT22;9206;50.994;4.538;2023-04-16T14:57:15;11.40;99.90
18163;DHT22;9206;50.994;4.538;2023-04-16T15:00:06;11.40;99.90
18163;DHT22;9206;50.994;4.538;2023-04-16T15:02:55;11.40;99.90
18163;DHT22;9206;50.994;4.538;2023-04-16T15:05:48;11.40;99.90
18163;DHT22;9206;50.994;4.538;2023-04-16T15:08:46;11.30;99.90
18163;DHT22;9206;50.994;4.538;2023-04-16T15:11:33;11.30;99.90
18163;DHT22;9206;50.994;4.538;2023-04-16T15:14:20;11.30;99.90
18163;DHT22;9206;50.994;4.538;2023-04-16T15:17:09;11.30;99.90
18163;DHT22;9206;50.994;4.538;2023-04-16T15:19:56;11.30;99.90
18163;DHT22;9206;50.994;4.538;2023-04-16T15:22:45;11.30;99.90
18163;DHT22;9206;50.994;4.538;2023-04-16T15:25:35;11.30;99.90
18163;DHT22;9206;50.994;4.538;2023-04-16T15:28:24;11.30;99.90
18163;DHT22;9206;50.994;4.538;2023-04-16T15:31:17;11.30;99.90
18163;DHT22;9206;50.994;4.538;2023-04-16T15:34:08;11.40;99.90
18163;DHT22;9206;50.994;4.538;2023-04-16T15:37:01;11.50;99.90
18163;DHT22;9206;50.994;4.538;2023-04-16T15:39:50;11.50;99.90
18163;DHT22;9206;50.994;4.538;2023-04-16T15:42:39;11.40;99.90
18163;DHT22;9206;50.994;4.538;2023-04-16T15:45:45;11.50;99.90
18163;DHT22;9206;50.994;4.538;2023-04-16T15:48:38;11.50;99.90
18163;DHT22;9206;50.994;4.538;2023-04-16T15:51:30;11.60;99.90
18163;DHT22;9206;50.994;4.538;2023-04-16T15:54:19;11.50;99.90
18163;DHT22;9206;50.994;4.538;2023-04-16T15:57:07;11.50;99.90
18163;DHT22;9206;50.994;4.538;2023-04-16T15:59:57;11.50;99.90
18163;DHT22;9206;50.994;4.538;2023-04-16T16:02:50;11.60;99.90
18163;DHT22;9206;50.994;4.538;2023-04-16T16:05:41;11.60;99.90
18163;DHT22;9206;50.994;4.538;2023-04-16T16:08:35;11.60;99.90
18163;DHT22;9206;50.994;4.538;2023-04-16T16:11:26;11.50;99.90
18163;DHT22;9206;50.994;4.538;2023-04-16T16:14:20;11.50;99.90
18163;DHT22;9206;50.994;4.538;2023-04-16T16:17:07;11.40;99.90
18163;DHT22;9206;50.994;4.538;2023-04-16T16:19:54;11.40;99.90
18163;DHT22;9206;50.994;4.538;2023-04-16T16:23:01;11.40;99.90
18163;DHT22;9206;50.994;4.538;2023-04-16T16:25:58;11.40;99.90
18163;DHT22;9206;50.994;4.538;2023-04-16T16:28:57;11.40;99.90
18163;DHT22;9206;50.994;4.538;2023-04-16T16:31:50;11.40;99.90
18163;DHT22;9206;50.994;4.538;2023-04-16T16:34:42;11.40;99.90
18163;DHT22;9206;50.994;4.538;2023-04-16T16:37:30;11.30;99.90
18163;DHT22;9206;50.994;4.538;2023-04-16T16:40:18;11.30;99.90
18163;DHT22;9206;50.994;4.538;2023-04-16T16:43:15;11.30;99.90
18163;DHT22;9206;50.994;4.538;2023-04-16T16:46:05;11.30;99.90
18163;DHT22;9206;50.994;4.538;2023-04-16T16:48:54;11.30;99.90
18163;DHT22;9206;50.994;4.538;2023-04-16T16:51:44;11.30;99.90
18163;DHT22;9206;50.994;4.538;2023-04-16T16:54:34;11.30;99.90
18163;DHT22;9206;50.994;4.538;2023-04-16T16:57:23;11.30;99.90
18163;DHT22;9206;50.994;4.538;2023-04-16T17:00:15;11.40;99.90
18163;DHT22;9206;50.994;4.538;2023-04-16T17:03:04;11.40;99.90
18163;DHT22;9206;50.994;4.538;2023-04-16T17:05:55;11.50;99.90
18163;DHT22;9206;50.994;4.538;2023-04-16T17:08:45;11.50;99.90
18163;DHT22;9206;50.994;4.538;2023-04-16T17:11:32;11.50;99.90
18163;DHT22;9206;50.994;4.538;2023-04-16T17:14:22;11.50;99.90
18163;DHT22;9206;50.994;4.538;2023-04-16T17:17:14;11.40;99.90
18163;DHT22;9206;50.994;4.538;2023-04-16T17:20:03;11.30;99.90
18163;DHT22;9206;50.994;4.538;2023-04-16T17:22:55;11.30;99.90
18163;DHT22;9206;50.994;4.538;2023-04-16T17:25:55;11.20;99.90
18163;DHT22;9206;50.994;4.538;2023-04-16T17:28:46;11.20;99.90
18163;DHT22;9206;50.994;4.538;2023-04-16T17:31:35;11.20;99.90
18163;DHT22;9206;50.994;4.538;2023-04-16T17:34:27;11.20;99.90
18163;DHT22;9206;50.994;4.538;2023-04-16T17:37:18;11.10;99.90
18163;DHT22;9206;50.994;4.538;2023-04-16T17:40:08;11.10;99.90
18163;DHT22;9206;50.994;4.538;2023-04-16T17:43:03;11.10;99.90
18163;DHT22;9206;50.994;4.538;2023-04-16T17:45:50;11.00;99.90
18163;DHT22;9206;50.994;4.538;2023-04-16T17:48:38;11.00;99.90
18163;DHT22;9206;50.994;4.538;2023-04-16T17:51:27;11.00;99.90
18163;DHT22;9206;50.994;4.538;2023-04-16T17:54:16;10.90;99.90
18163;DHT22;9206;50.994;4.538;2023-04-16T17:57:04;10.90;99.90
18163;DHT22;9206;50.994;4.538;2023-04-16T17:59:51;10.80;99.90
18163;DHT22;9206;50.994;4.538;2023-04-16T18:02:40;10.80;99.90
18163;DHT22;9206;50.994;4.538;2023-04-16T18:05:29;10.70;99.90
18163;DHT22;9206;50.994;4.538;2023-04-16T18:08:22;10.70;99.90
18163;DHT22;9206;50.994;4.538;2023-04-16T18:11:16;10.70;99.90
18163;DHT22;9206;50.994;4.538;2023-04-16T18:14:12;10.70;99.90
18163;DHT22;9206;50.994;4.538;2023-04-16T18:21:08;10.50;99.90
18163;DHT22;9206;50.994;4.538;2023-04-16T18:24:28;10.50;99.90
18163;DHT22;9206;50.994;4.538;2023-04-16T18:27:47;10.50;99.90
18163;DHT22;9206;50.994;4.538;2023-04-16T18:30:43;10.50;99.90
18163;DHT22;9206;50.994;4.538;2023-04-16T18:33:45;10.40;99.90
18163;DHT22;9206;50.994;4.538;2023-04-16T18:36:50;10.40;99.90
18163;DHT22;9206;50.994;4.538;2023-04-16T18:39:39;10.40;99.90
18163;DHT22;9206;50.994;4.538;2023-04-16T18:42:26;10.40;99.90
18163;DHT22;9206;50.994;4.538;2023-04-16T18:45:15;10.30;99.90
18163;DHT22;9206;50.994;4.538;2023-04-16T18:48:11;10.30;99.90